createdAt,value
2023-10-27T10:00:19.104Z,1.50
2023-10-27T10:02:48.333Z,1.97
2023-10-27T10:05:15.851Z,1.90
2023-10-27T10:08:07.215Z,1.50
2023-10-27T10:14:37.638Z,1.70
2023-10-27T10:17:10.311Z,1.53
2023-10-27T10:19:53.089Z,1.70
2023-10-27T10:22:41.802Z,2.07
2023-10-27T10:25:22.318Z,2.03
2023-10-27T10:28:08.396Z,1.90
2023-10-27T10:30:42.838Z,1.77
2023-10-27T10:33:23.108Z,1.50
2023-10-27T10:36:15.402Z,1.70
2023-10-27T10:39:00.163Z,1.97
2023-10-27T10:41:42.352Z,1.90
2023-10-27T10:44:17.213Z,2.10
2023-10-27T10:46:46.565Z,1.60
2023-10-27T10:49:28.220Z,1.80
2023-10-27T10:52:00.784Z,1.60
2023-10-27T10:54:36.508Z,1.30
2023-10-27T10:57:14.324Z,1.50
2023-10-27T10:59:58.185Z,1.30
2023-10-27T11:02:29.749Z,1.30
2023-10-27T11:04:58.623Z,1.53
2023-10-27T11:07:26.675Z,1.20
2023-10-27T11:09:53.603Z,1.30
2023-10-27T11:12:27.049Z,1.03
2023-10-27T11:15:03.883Z,1.17
2023-10-27T11:17:50.581Z,0.93
2023-10-27T11:20:36.086Z,1.00
2023-10-27T11:23:10.557Z,0.90
2023-10-27T11:25:40.236Z,0.93
2023-10-27T11:28:27.869Z,1.43
2023-10-27T11:31:20.531Z,1.50
2023-10-27T11:34:13.887Z,1.00
2023-10-27T11:36:44.074Z,1.00
2023-10-27T11:39:39.743Z,1.00
2023-10-27T11:42:11.280Z,0.97
2023-10-27T11:44:41.750Z,0.90
2023-10-27T11:47:10.856Z,0.90
2023-10-27T11:49:40.311Z,1.00
2023-10-27T11:52:11.019Z,1.07
2023-10-27T11:54:40.549Z,1.13
2023-10-27T11:57:10.803Z,1.07
2023-10-27T11:59:40.130Z,1.20
2023-10-27T12:02:11.747Z,1.07
2023-10-27T12:04:43.757Z,1.23
2023-10-27T12:07:15.478Z,1.27
2023-10-27T12:09:42.391Z,0.93
2023-10-27T12:12:11.650Z,0.70
2023-10-27T12:14:38.982Z,0.67
2023-10-27T12:17:07.113Z,0.80
2023-10-27T12:19:34.016Z,0.80
2023-10-27T12:22:02.227Z,0.70
2023-10-27T12:24:32.801Z,0.80
2023-10-27T12:26:59.688Z,0.53
2023-10-27T12:29:29.975Z,0.80
2023-10-27T12:32:01.024Z,0.80
2023-10-27T12:34:27.900Z,0.60
2023-10-27T12:36:54.735Z,0.70
2023-10-27T12:39:24.098Z,0.90
2023-10-27T12:41:53.454Z,0.80
2023-10-27T12:44:20.949Z,0.80
2023-10-27T12:46:48.197Z,1.07
2023-10-27T12:49:15.172Z,0.90
2023-10-27T12:51:47.350Z,0.90
2023-10-27T12:54:16.490Z,0.80
2023-10-27T12:56:46.386Z,1.17
2023-10-27T12:59:13.419Z,0.80
2023-10-27T13:01:42.738Z,0.80
2023-10-27T13:04:09.688Z,1.03
2023-10-27T13:06:38.388Z,1.10
2023-10-27T13:09:10.760Z,0.90
2023-10-27T13:11:39.866Z,0.87
2023-10-27T13:14:06.932Z,1.00
2023-10-27T13:16:35.971Z,0.57
2023-10-27T13:19:05.432Z,0.70
2023-10-27T13:21:36.559Z,1.00
2023-10-27T13:24:09.098Z,0.87
2023-10-27T13:26:38.108Z,1.20
2023-10-27T13:29:07.133Z,0.80
2023-10-27T13:31:38.942Z,1.07
2023-10-27T13:34:08.422Z,0.80
2023-10-27T13:36:37.408Z,0.80
2023-10-27T13:39:06.105Z,0.90
2023-10-27T13:41:35.798Z,0.87
2023-10-27T13:44:05.929Z,1.10
2023-10-27T13:46:38.180Z,0.80
2023-10-27T13:49:14.343Z,0.93
2023-10-27T13:51:45.596Z,0.80
2023-10-27T13:54:15.807Z,1.17
2023-10-27T13:56:42.660Z,1.57
2023-10-27T13:59:11.969Z,1.30
2023-10-27T14:01:40.444Z,1.10
2023-10-27T14:04:07.881Z,1.00
2023-10-27T14:06:36.247Z,1.17
2023-10-27T14:09:09.910Z,1.23
2023-10-27T14:11:51.201Z,0.80
2023-10-27T14:14:22.162Z,0.67
2023-10-27T14:16:49.133Z,1.07
2023-10-27T14:19:18.411Z,0.70
2023-10-27T14:21:47.743Z,1.17
2023-10-27T14:24:19.860Z,1.13
2023-10-27T14:26:53.989Z,1.00
2023-10-27T14:29:25.213Z,1.13
2023-10-27T14:31:56.759Z,1.10
2023-10-27T14:34:28.693Z,1.20
2023-10-27T14:36:55.644Z,0.90
2023-10-27T14:39:27.925Z,0.90
2023-10-27T14:41:54.792Z,1.00
2023-10-27T14:44:26.193Z,0.90
2023-10-27T14:46:53.082Z,1.00
2023-10-27T14:49:19.970Z,1.63
2023-10-27T14:51:46.976Z,0.90
2023-10-27T14:54:16.091Z,1.10
2023-10-27T14:56:43.032Z,1.00
2023-10-27T14:59:13.983Z,1.50
2023-10-27T15:01:43.039Z,1.10
2023-10-27T15:04:16.156Z,1.30
2023-10-27T15:06:47.153Z,1.20
2023-10-27T15:09:15.664Z,1.00
2023-10-27T15:11:45.040Z,0.80
2023-10-27T15:14:12.051Z,0.90
2023-10-27T15:16:43.890Z,0.80
2023-10-27T15:19:10.911Z,1.17
2023-10-27T15:21:42.166Z,0.97
2023-10-27T15:24:15.539Z,1.03
2023-10-27T15:26:43.170Z,0.90
2023-10-27T15:29:14.980Z,0.80
2023-10-27T15:31:42.012Z,1.07
2023-10-27T15:34:11.916Z,0.80
2023-10-27T15:36:42.491Z,0.70
2023-10-27T15:39:11.064Z,0.80
2023-10-27T15:41:40.864Z,0.90
2023-10-27T15:44:10.956Z,0.90
2023-10-27T15:46:39.364Z,0.97
2023-10-27T15:49:09.014Z,1.00
2023-10-27T15:51:40.729Z,0.90
2023-10-27T15:54:07.758Z,0.90
2023-10-27T15:56:34.629Z,0.80
2023-10-27T15:59:04.357Z,1.43
2023-10-27T16:01:33.715Z,1.50
2023-10-27T16:04:00.851Z,0.90
2023-10-27T16:06:32.324Z,0.83
2023-10-27T16:09:04.726Z,1.10
2023-10-27T16:11:37.648Z,1.20
2023-10-27T16:14:06.902Z,0.90
2023-10-27T16:16:38.564Z,1.30
2023-10-27T16:19:05.679Z,1.20
2023-10-27T16:21:32.673Z,1.30
2023-10-27T16:24:01.924Z,1.30
2023-10-27T16:26:31.827Z,1.40
2023-10-27T16:29:03.432Z,1.20
2023-10-27T16:31:35.683Z,1.20
2023-10-27T16:34:02.666Z,1.00
2023-10-27T16:36:29.905Z,1.67
2023-10-27T16:38:56.740Z,1.47
2023-10-27T16:41:28.175Z,1.10
2023-10-27T16:43:55.134Z,1.17
2023-10-27T16:46:26.990Z,0.90
2023-10-27T16:48:53.875Z,1.13
2023-10-27T16:51:22.865Z,1.00
2023-10-27T16:53:49.747Z,1.47
2023-10-27T16:56:21.391Z,1.10
2023-10-27T16:58:52.574Z,0.90
2023-10-27T17:01:21.856Z,1.00
2023-10-27T17:03:53.703Z,0.83
2023-10-27T17:06:25.485Z,1.00
2023-10-27T17:08:57.133Z,0.90
2023-10-27T17:11:26.328Z,0.87
2023-10-27T17:13:53.356Z,0.93
2023-10-27T17:16:22.676Z,1.00
2023-10-27T17:18:54.415Z,1.00
2023-10-27T17:21:25.162Z,0.97
2023-10-27T17:23:54.758Z,1.07
2023-10-27T17:26:22.182Z,1.67
2023-10-27T17:28:49.636Z,1.10
2023-10-27T17:31:20.534Z,0.90
2023-10-27T17:33:51.014Z,0.90
2023-10-27T17:36:24.170Z,0.87
2023-10-27T17:38:52.268Z,1.17
2023-10-27T17:41:19.316Z,0.80
2023-10-27T17:43:48.983Z,1.00
2023-10-27T17:46:18.490Z,1.10
2023-10-27T17:48:50.227Z,1.13
2023-10-27T17:51:21.502Z,1.20
2023-10-27T17:53:50.671Z,0.90
2023-10-27T17:56:19.792Z,1.00
2023-10-27T17:58:51.841Z,1.43
2023-10-27T18:01:23.523Z,1.10
2023-10-27T18:03:57.529Z,1.30
2023-10-27T18:06:24.391Z,0.93
2023-10-27T18:08:52.079Z,1.27
2023-10-27T18:11:27.049Z,1.47
2023-10-27T18:13:58.018Z,1.23
2023-10-27T18:16:25.063Z,1.57
2023-10-27T18:18:52.002Z,1.27
2023-10-27T18:21:21.659Z,1.00
2023-10-27T18:23:53.870Z,1.40
2023-10-27T18:26:21.362Z,1.90
2023-10-27T18:28:52.917Z,1.33
2023-10-27T18:31:19.973Z,1.30
2023-10-27T18:33:49.765Z,1.33
2023-10-27T18:36:21.070Z,1.27
2023-10-27T18:38:52.343Z,2.07
2023-10-27T18:41:26.776Z,1.40
2023-10-27T18:43:53.882Z,1.83
2023-10-27T18:46:20.792Z,2.53
2023-10-27T18:48:49.912Z,1.70
2023-10-27T18:51:17.542Z,2.20
2023-10-27T18:53:49.597Z,2.23
2023-10-27T18:56:16.735Z,2.27
2023-10-27T18:58:49.018Z,2.87
2023-10-27T19:01:16.066Z,2.67
2023-10-27T19:03:48.610Z,2.53
2023-10-27T19:06:17.710Z,2.43
2023-10-27T19:08:45.160Z,2.83
2023-10-27T19:11:14.587Z,2.87
2023-10-27T19:13:47.954Z,2.57
2023-10-27T19:16:17.149Z,2.10
2023-10-27T19:18:50.057Z,2.67
2023-10-27T19:21:22.924Z,2.80
2023-10-27T19:23:55.805Z,2.77
2023-10-27T19:26:25.018Z,2.50
2023-10-27T19:28:55.252Z,3.00
2023-10-27T19:31:28.346Z,3.33
2023-10-27T19:33:57.361Z,2.60
2023-10-27T19:36:29.518Z,2.80
2023-10-27T19:38:56.682Z,2.23
2023-10-27T19:41:26.105Z,2.70
2023-10-27T19:43:53.203Z,2.73
2023-10-27T19:46:20.962Z,2.80
2023-10-27T19:48:48.172Z,2.27
2023-10-27T19:51:16.365Z,2.20
2023-10-27T19:53:46.480Z,2.03
2023-10-27T19:56:17.465Z,1.47
2023-10-27T19:58:48.979Z,1.60
2023-10-27T20:01:23.964Z,2.07
2023-10-27T20:03:52.862Z,1.87
2023-10-27T20:06:21.864Z,2.43
2023-10-27T20:08:51.069Z,2.40
2023-10-27T20:11:20.633Z,2.73
2023-10-27T20:13:50.288Z,3.40
2023-10-27T20:16:23.855Z,4.13
2023-10-27T20:18:52.539Z,4.17
2023-10-27T20:21:24.485Z,3.73
2023-10-27T20:23:54.889Z,3.20
2023-10-27T20:26:23.764Z,3.30
2023-10-27T20:28:52.386Z,2.90
2023-10-27T20:31:21.304Z,2.70
2023-10-27T20:33:48.491Z,2.30
2023-10-27T20:36:18.142Z,2.27
2023-10-27T20:38:49.715Z,2.30
2023-10-27T20:41:17.751Z,2.03
2023-10-27T20:43:44.915Z,1.70
2023-10-27T20:46:11.945Z,2.20
2023-10-27T20:48:41.448Z,1.97
2023-10-27T20:51:11.248Z,1.90
2023-10-27T20:53:42.886Z,2.00
2023-10-27T20:56:09.974Z,1.90
2023-10-27T20:58:37.036Z,2.07
2023-10-27T21:01:09.096Z,1.73
2023-10-27T21:03:36.915Z,1.80
2023-10-27T21:06:08.690Z,1.60
2023-10-27T21:08:35.764Z,2.00
2023-10-27T21:11:11.996Z,1.50
2023-10-27T21:13:38.967Z,1.73
2023-10-27T21:16:10.378Z,1.60
2023-10-27T21:18:42.238Z,1.80
2023-10-27T21:21:09.184Z,1.60
2023-10-27T21:23:36.124Z,1.53
2023-10-27T21:26:05.419Z,1.80
2023-10-27T21:28:32.351Z,1.40
2023-10-27T21:31:04.156Z,1.77
